< < Back
Terminal Aerodrome Forecast


Current Version              Previous Versions:   1  2  3  4  5  6  7  8  9  

Terminal Aerodrome Forecast

339
FTUS42 KCAE 011700
TAFAGS
TAF
KAGS 011734Z 0118/0218 18010G20KT P6SM BKN050
     FM020400 20015G23KT 6SM -RA BKN025 OVC050
     FM020800 21016G25KT 4SM -RA BR SCT007 OVC015
     FM021400 27021G33KT P6SM -RA BKN035=



Latest METAR

770
SAUS70 KWBC 020200 RRE
MTRAGS
METAR KAGS 020153Z 18008KT 10SM -RA OVC090 16/09 A2995 RMK AO2 RAB27
SLP142 P0000 T01560089 $


USA.gov is the U.S. government's official web portal to all federal, state and local government web resources and services.